sensor_id;sensor_type;location;lat;lon;timestamp;pressure;altitude;pressure_sealevel;temperature;humidity
40592;BME280;26301;42.832;23.918;2023-02-03T00:01:53;93253.19;;;-0.39;69.81
40592;BME280;26301;42.832;23.918;2023-02-03T00:04:24;93268.06;;;-0.28;69.44
40592;BME280;26301;42.832;23.918;2023-02-03T00:06:50;93248.06;;;-0.31;70.75
40592;BME280;26301;42.832;23.918;2023-02-03T00:09:16;93262.59;;;-0.17;70.67
40592;BME280;26301;42.832;23.918;2023-02-03T00:11:42;93268.47;;;-0.16;70.36
40592;BME280;26301;42.832;23.918;2023-02-03T00:14:08;93260.84;;;-0.16;71.89
40592;BME280;26301;42.832;23.918;2023-02-03T00:16:34;93257.69;;;-0.18;69.36
40592;BME280;26301;42.832;23.918;2023-02-03T00:18:59;93262.44;;;-0.15;68.82
40592;BME280;26301;42.832;23.918;2023-02-03T00:21:44;93270.69;;;-0.13;66.66
40592;BME280;26301;42.832;23.918;2023-02-03T00:24:09;93268.59;;;-0.10;68.73
40592;BME280;26301;42.832;23.918;2023-02-03T00:26:40;93264.34;;;-0.17;69.69
40592;BME280;26301;42.832;23.918;2023-02-03T00:29:15;93277.97;;;-0.10;66.28
40592;BME280;26301;42.832;23.918;2023-02-03T00:31:42;93254.09;;;-0.24;67.89
40592;BME280;26301;42.832;23.918;2023-02-03T00:34:08;93265.63;;;-0.21;68.15
40592;BME280;26301;42.832;23.918;2023-02-03T00:36:38;93292.09;;;-0.16;66.41
40592;BME280;26301;42.832;23.918;2023-02-03T00:39:04;93283.69;;;-0.16;65.05
40592;BME280;26301;42.832;23.918;2023-02-03T00:41:33;93288.25;;;-0.04;66.16
40592;BME280;26301;42.832;23.918;2023-02-03T00:43:59;93288.72;;;0.00;66.86
40592;BME280;26301;42.832;23.918;2023-02-03T00:46:36;93254.09;;;-0.24;64.57
40592;BME280;26301;42.832;23.918;2023-02-03T00:52:04;93259.03;;;0.01;65.78
40592;BME280;26301;42.832;23.918;2023-02-03T00:54:30;93290.59;;;0.06;66.20
40592;BME280;26301;42.832;23.918;2023-02-03T00:56:56;93268.78;;;-0.11;65.15
40592;BME280;26301;42.832;23.918;2023-02-03T00:59:21;93289.78;;;0.06;65.89
40592;BME280;26301;42.832;23.918;2023-02-03T01:01:47;93294.84;;;0.06;64.94
40592;BME280;26301;42.832;23.918;2023-02-03T01:04:14;93287.88;;;0.08;63.54
40592;BME280;26301;42.832;23.918;2023-02-03T01:06:48;93293.72;;;0.08;63.04
40592;BME280;26301;42.832;23.918;2023-02-03T01:09:14;93307.69;;;0.12;64.09
40592;BME280;26301;42.832;23.918;2023-02-03T01:11:40;93293.06;;;0.14;65.77
40592;BME280;26301;42.832;23.918;2023-02-03T01:14:05;93288.94;;;0.13;65.58
40592;BME280;26301;42.832;23.918;2023-02-03T01:16:31;93281.31;;;0.13;66.33
40592;BME280;26301;42.832;23.918;2023-02-03T01:19:00;93297.38;;;0.37;65.28
40592;BME280;26301;42.832;23.918;2023-02-03T01:21:26;93291.72;;;0.27;65.75
40592;BME280;26301;42.832;23.918;2023-02-03T01:23:53;93257.06;;;0.11;67.79
40592;BME280;26301;42.832;23.918;2023-02-03T01:26:21;93270.38;;;0.13;69.22
40592;BME280;26301;42.832;23.918;2023-02-03T01:28:55;93292.16;;;0.07;64.88
40592;BME280;26301;42.832;23.918;2023-02-03T01:31:27;93291.97;;;0.09;65.60
40592;BME280;26301;42.832;23.918;2023-02-03T01:33:54;93292.22;;;0.22;64.99
40592;BME280;26301;42.832;23.918;2023-02-03T01:36:21;93300.41;;;0.09;64.75
40592;BME280;26301;42.832;23.918;2023-02-03T01:38:47;93278.22;;;0.03;65.35
40592;BME280;26301;42.832;23.918;2023-02-03T01:41:17;93256.06;;;-0.11;64.09
40592;BME280;26301;42.832;23.918;2023-02-03T01:43:46;93287.66;;;0.17;65.25
40592;BME280;26301;42.832;23.918;2023-02-03T01:49:26;93292.16;;;0.07;64.50
40592;BME280;26301;42.832;23.918;2023-02-03T01:51:49;93303.84;;;0.16;64.44
40592;BME280;26301;42.832;23.918;2023-02-03T01:54:30;93284.09;;;0.04;64.71
40592;BME280;26301;42.832;23.918;2023-02-03T01:57:03;93289.31;;;0.02;64.55
40592;BME280;26301;42.832;23.918;2023-02-03T01:59:30;93279.34;;;0.01;65.28
40592;BME280;26301;42.832;23.918;2023-02-03T02:01:59;93291.03;;;0.10;66.26
40592;BME280;26301;42.832;23.918;2023-02-03T02:04:32;93296.72;;;0.12;65.94
40592;BME280;26301;42.832;23.918;2023-02-03T02:07:15;93287.41;;;0.04;66.47
40592;BME280;26301;42.832;23.918;2023-02-03T02:09:42;93297.69;;;0.11;65.74
40592;BME280;26301;42.832;23.918;2023-02-03T02:12:10;93307.06;;;0.10;65.44
40592;BME280;26301;42.832;23.918;2023-02-03T02:14:37;93287.56;;;0.03;65.72
40592;BME280;26301;42.832;23.918;2023-02-03T02:20:32;93307.56;;;0.06;66.27
40592;BME280;26301;42.832;23.918;2023-02-03T02:25:54;93284.47;;;-0.08;66.51
40592;BME280;26301;42.832;23.918;2023-02-03T02:28:47;93298.13;;;-0.09;66.61
40592;BME280;26301;42.832;23.918;2023-02-03T02:31:46;93324.53;;;0.05;66.59
40592;BME280;26301;42.832;23.918;2023-02-03T02:34:48;93327.69;;;0.15;64.97
40592;BME280;26301;42.832;23.918;2023-02-03T02:37:29;93297.06;;;0.09;65.70
40592;BME280;26301;42.832;23.918;2023-02-03T02:43:14;93335.31;;;0.15;65.46
40592;BME280;26301;42.832;23.918;2023-02-03T02:45:50;93338.78;;;0.14;65.75
40592;BME280;26301;42.832;23.918;2023-02-03T02:48:24;93335.00;;;0.10;64.84
40592;BME280;26301;42.832;23.918;2023-02-03T02:50:53;93324.41;;;0.07;65.00
40592;BME280;26301;42.832;23.918;2023-02-03T02:53:22;93316.81;;;-0.02;65.34
40592;BME280;26301;42.832;23.918;2023-02-03T02:55:51;93340.31;;;0.23;65.79
40592;BME280;26301;42.832;23.918;2023-02-03T02:58:18;93342.25;;;0.21;65.94
40592;BME280;26301;42.832;23.918;2023-02-03T03:00:45;93349.38;;;0.26;65.43
40592;BME280;26301;42.832;23.918;2023-02-03T03:03:22;93350.34;;;0.25;63.52
40592;BME280;26301;42.832;23.918;2023-02-03T03:06:08;93335.91;;;0.17;64.40
40592;BME280;26301;42.832;23.918;2023-02-03T03:11:04;93351.13;;;0.26;64.99
40592;BME280;26301;42.832;23.918;2023-02-03T03:13:35;93337.78;;;0.23;63.41
40592;BME280;26301;42.832;23.918;2023-02-03T03:16:02;93347.50;;;0.20;64.91
40592;BME280;26301;42.832;23.918;2023-02-03T03:18:39;93343.03;;;0.22;64.59
40592;BME280;26301;42.832;23.918;2023-02-03T03:21:09;93354.28;;;0.28;61.88
40592;BME280;26301;42.832;23.918;2023-02-03T03:23:48;93361.63;;;0.22;63.08
40592;BME280;26301;42.832;23.918;2023-02-03T03:29:05;93368.69;;;0.35;65.24
40592;BME280;26301;42.832;23.918;2023-02-03T03:31:31;93363.03;;;0.25;62.65
40592;BME280;26301;42.832;23.918;2023-02-03T03:33:57;93360.06;;;0.13;62.67
40592;BME280;26301;42.832;23.918;2023-02-03T03:36:32;93357.16;;;0.25;63.70
40592;BME280;26301;42.832;23.918;2023-02-03T03:44:41;93378.81;;;0.43;64.39
40592;BME280;26301;42.832;23.918;2023-02-03T03:52:33;93387.75;;;0.39;64.04
40592;BME280;26301;42.832;23.918;2023-02-03T03:55:02;93382.19;;;0.36;64.18
40592;BME280;26301;42.832;23.918;2023-02-03T03:57:58;93405.91;;;0.51;63.48
40592;BME280;26301;42.832;23.918;2023-02-03T04:00:27;93395.03;;;0.42;62.03
40592;BME280;26301;42.832;23.918;2023-02-03T04:03:04;93389.78;;;0.44;64.17
40592;BME280;26301;42.832;23.918;2023-02-03T04:05:32;93398.13;;;0.53;64.41
40592;BME280;26301;42.832;23.918;2023-02-03T04:07:58;93392.50;;;0.42;63.16
40592;BME280;26301;42.832;23.918;2023-02-03T04:10:36;93410.88;;;0.44;63.43
40592;BME280;26301;42.832;23.918;2023-02-03T04:13:36;93421.34;;;0.50;63.27
40592;BME280;26301;42.832;23.918;2023-02-03T04:16:17;93397.06;;;0.47;62.54
40592;BME280;26301;42.832;23.918;2023-02-03T04:18:42;93388.97;;;0.43;63.82
40592;BME280;26301;42.832;23.918;2023-02-03T04:21:10;93408.75;;;0.56;65.38
40592;BME280;26301;42.832;23.918;2023-02-03T04:23:44;93408.16;;;0.54;66.65
40592;BME280;26301;42.832;23.918;2023-02-03T04:26:10;93413.84;;;0.56;67.47
40592;BME280;26301;42.832;23.918;2023-02-03T04:28:35;93403.09;;;0.46;68.42
40592;BME280;26301;42.832;23.918;2023-02-03T04:31:01;93420.69;;;0.56;68.34
40592;BME280;26301;42.832;23.918;2023-02-03T04:33:26;93385.69;;;0.35;69.84
40592;BME280;26301;42.832;23.918;2023-02-03T04:35:52;93398.97;;;0.45;71.01
40592;BME280;26301;42.832;23.918;2023-02-03T04:38:17;93420.00;;;0.62;71.00
40592;BME280;26301;42.832;23.918;2023-02-03T04:40:43;93419.72;;;0.57;72.65
40592;BME280;26301;42.832;23.918;2023-02-03T04:43:10;93412.75;;;0.51;71.17
40592;BME280;26301;42.832;23.918;2023-02-03T04:45:36;93404.34;;;0.50;68.08
40592;BME280;26301;42.832;23.918;2023-02-03T04:48:02;93425.09;;;0.31;67.11
40592;BME280;26301;42.832;23.918;2023-02-03T04:50:31;93425.25;;;0.29;66.66
40592;BME280;26301;42.832;23.918;2023-02-03T04:52:57;93438.69;;;0.46;65.46
40592;BME280;26301;42.832;23.918;2023-02-03T04:55:25;93426.53;;;0.33;64.68
40592;BME280;26301;42.832;23.918;2023-02-03T04:57:58;93437.56;;;0.49;65.32
40592;BME280;26301;42.832;23.918;2023-02-03T05:00:25;93451.03;;;0.57;68.61
40592;BME280;26301;42.832;23.918;2023-02-03T05:02:51;93415.78;;;0.54;64.70
40592;BME280;26301;42.832;23.918;2023-02-03T05:05:17;93418.03;;;0.49;66.20
40592;BME280;26301;42.832;23.918;2023-02-03T05:07:43;93433.75;;;0.44;66.77
40592;BME280;26301;42.832;23.918;2023-02-03T05:10:09;93428.53;;;0.46;66.39
40592;BME280;26301;42.832;23.918;2023-02-03T05:12:35;93421.69;;;0.47;67.29
40592;BME280;26301;42.832;23.918;2023-02-03T05:15:00;93426.09;;;0.53;71.43
40592;BME280;26301;42.832;23.918;2023-02-03T05:17:26;93428.66;;;0.53;72.49
40592;BME280;26301;42.832;23.918;2023-02-03T05:19:52;93423.09;;;0.49;71.99
40592;BME280;26301;42.832;23.918;2023-02-03T05:22:17;93447.66;;;0.65;66.93
40592;BME280;26301;42.832;23.918;2023-02-03T05:24:52;93444.56;;;0.47;64.87
40592;BME280;26301;42.832;23.918;2023-02-03T05:27:17;93447.81;;;0.63;64.94
40592;BME280;26301;42.832;23.918;2023-02-03T05:29:43;93441.38;;;0.44;64.84
40592;BME280;26301;42.832;23.918;2023-02-03T05:32:09;93428.41;;;0.39;67.76
40592;BME280;26301;42.832;23.918;2023-02-03T05:34:34;93436.53;;;0.27;66.07
40592;BME280;26301;42.832;23.918;2023-02-03T05:37:01;93457.09;;;0.48;65.66
40592;BME280;26301;42.832;23.918;2023-02-03T05:39:28;93459.97;;;0.45;64.62
40592;BME280;26301;42.832;23.918;2023-02-03T05:41:53;93463.03;;;0.32;64.15
40592;BME280;26301;42.832;23.918;2023-02-03T05:44:23;93435.28;;;0.22;67.20
40592;BME280;26301;42.832;23.918;2023-02-03T05:46:50;93466.53;;;0.39;65.40
40592;BME280;26301;42.832;23.918;2023-02-03T05:49:16;93451.38;;;0.07;65.48
40592;BME280;26301;42.832;23.918;2023-02-03T05:51:42;93475.66;;;0.09;65.62
40592;BME280;26301;42.832;23.918;2023-02-03T05:54:08;93484.03;;;0.18;65.42
40592;BME280;26301;42.832;23.918;2023-02-03T05:56:34;93466.31;;;0.02;65.99
40592;BME280;26301;42.832;23.918;2023-02-03T05:58:59;93488.50;;;0.16;65.93
40592;BME280;26301;42.832;23.918;2023-02-03T06:01:25;93482.81;;;0.06;65.52
40592;BME280;26301;42.832;23.918;2023-02-03T06:03:51;93499.94;;;0.12;64.38
40592;BME280;26301;42.832;23.918;2023-02-03T06:06:17;93474.72;;;0.02;65.83
40592;BME280;26301;42.832;23.918;2023-02-03T06:08:42;93483.94;;;0.03;65.55
40592;BME280;26301;42.832;23.918;2023-02-03T06:11:09;93507.88;;;0.17;66.37
40592;BME280;26301;42.832;23.918;2023-02-03T06:13:34;93483.75;;;0.13;64.91
40592;BME280;26301;42.832;23.918;2023-02-03T06:16:01;93486.25;;;0.21;65.50
40592;BME280;26301;42.832;23.918;2023-02-03T06:18:26;93509.59;;;0.25;66.10
40592;BME280;26301;42.832;23.918;2023-02-03T06:20:52;93506.56;;;0.21;65.51
40592;BME280;26301;42.832;23.918;2023-02-03T06:23:18;93515.28;;;0.27;66.53
40592;BME280;26301;42.832;23.918;2023-02-03T06:25:44;93507.38;;;0.21;66.38
40592;BME280;26301;42.832;23.918;2023-02-03T06:28:12;93506.28;;;0.16;64.70
40592;BME280;26301;42.832;23.918;2023-02-03T06:30:37;93493.91;;;0.13;65.16
40592;BME280;26301;42.832;23.918;2023-02-03T06:33:03;93505.50;;;0.15;66.04
40592;BME280;26301;42.832;23.918;2023-02-03T06:35:28;93521.03;;;0.20;66.38
40592;BME280;26301;42.832;23.918;2023-02-03T06:37:54;93515.66;;;0.15;65.95
40592;BME280;26301;42.832;23.918;2023-02-03T06:40:19;93515.34;;;0.10;65.71
40592;BME280;26301;42.832;23.918;2023-02-03T06:42:45;93516.59;;;0.22;64.83
40592;BME280;26301;42.832;23.918;2023-02-03T06:45:11;93526.09;;;0.20;65.23
40592;BME280;26301;42.832;23.918;2023-02-03T06:47:41;93519.78;;;0.08;66.68
40592;BME280;26301;42.832;23.918;2023-02-03T06:50:12;93527.25;;;0.10;65.57
40592;BME280;26301;42.832;23.918;2023-02-03T06:52:39;93541.66;;;0.26;65.96
40592;BME280;26301;42.832;23.918;2023-02-03T06:55:05;93551.38;;;0.30;65.74
40592;BME280;26301;42.832;23.918;2023-02-03T06:57:31;93549.09;;;0.35;65.71
40592;BME280;26301;42.832;23.918;2023-02-03T06:59:57;93532.09;;;0.36;64.65
40592;BME280;26301;42.832;23.918;2023-02-03T07:02:23;93541.78;;;0.40;64.54
40592;BME280;26301;42.832;23.918;2023-02-03T07:04:48;93532.28;;;0.34;65.23
40592;BME280;26301;42.832;23.918;2023-02-03T07:07:14;93566.56;;;0.47;65.53
40592;BME280;26301;42.832;23.918;2023-02-03T07:09:40;93545.13;;;0.33;65.70
40592;BME280;26301;42.832;23.918;2023-02-03T07:12:07;93572.72;;;0.60;64.87
40592;BME280;26301;42.832;23.918;2023-02-03T07:14:33;93572.56;;;0.54;66.25
40592;BME280;26301;42.832;23.918;2023-02-03T07:17:06;93562.72;;;0.51;65.29
40592;BME280;26301;42.832;23.918;2023-02-03T07:19:32;93576.53;;;0.48;65.76
40592;BME280;26301;42.832;23.918;2023-02-03T07:21:57;93571.03;;;0.36;65.65
40592;BME280;26301;42.832;23.918;2023-02-03T07:24:23;93554.06;;;0.29;65.46
40592;BME280;26301;42.832;23.918;2023-02-03T07:26:50;93563.25;;;0.38;64.79
40592;BME280;26301;42.832;23.918;2023-02-03T07:29:25;93551.16;;;0.40;65.68
40592;BME280;26301;42.832;23.918;2023-02-03T07:31:51;93558.63;;;0.41;65.94
40592;BME280;26301;42.832;23.918;2023-02-03T07:34:16;93555.47;;;0.39;64.61
40592;BME280;26301;42.832;23.918;2023-02-03T07:36:42;93548.19;;;0.28;65.45
40592;BME280;26301;42.832;23.918;2023-02-03T07:39:07;93564.81;;;0.47;65.52
40592;BME280;26301;42.832;23.918;2023-02-03T07:41:33;93537.19;;;0.36;65.35
40592;BME280;26301;42.832;23.918;2023-02-03T07:43:59;93549.25;;;0.42;64.95
40592;BME280;26301;42.832;23.918;2023-02-03T07:46:33;93545.13;;;0.33;64.24
40592;BME280;26301;42.832;23.918;2023-02-03T07:49:10;93571.66;;;0.38;63.98
40592;BME280;26301;42.832;23.918;2023-02-03T07:51:36;93583.25;;;0.41;63.81
40592;BME280;26301;42.832;23.918;2023-02-03T07:56:33;93550.72;;;0.20;64.09
40592;BME280;26301;42.832;23.918;2023-02-03T07:59:00;93547.72;;;0.16;63.15
40592;BME280;26301;42.832;23.918;2023-02-03T08:01:26;93567.22;;;0.32;63.64
40592;BME280;26301;42.832;23.918;2023-02-03T08:03:53;93565.31;;;0.42;63.54
40592;BME280;26301;42.832;23.918;2023-02-03T08:06:19;93561.34;;;0.32;63.23
40592;BME280;26301;42.832;23.918;2023-02-03T08:08:48;93579.72;;;0.50;62.77
40592;BME280;26301;42.832;23.918;2023-02-03T08:11:14;93569.25;;;0.45;63.64
40592;BME280;26301;42.832;23.918;2023-02-03T08:13:39;93578.50;;;0.38;64.00
40592;BME280;26301;42.832;23.918;2023-02-03T08:16:35;93575.16;;;0.37;62.79
40592;BME280;26301;42.832;23.918;2023-02-03T08:19:18;93579.13;;;0.32;63.84
40592;BME280;26301;42.832;23.918;2023-02-03T08:21:44;93575.47;;;0.42;63.04
40592;BME280;26301;42.832;23.918;2023-02-03T08:24:10;93589.75;;;0.43;63.81
40592;BME280;26301;42.832;23.918;2023-02-03T08:26:36;93574.06;;;0.32;63.17
40592;BME280;26301;42.832;23.918;2023-02-03T08:29:02;93592.28;;;0.52;63.15
40592;BME280;26301;42.832;23.918;2023-02-03T08:31:28;93580.84;;;0.48;63.41
40592;BME280;26301;42.832;23.918;2023-02-03T08:33:54;93594.97;;;0.50;62.85
40592;BME280;26301;42.832;23.918;2023-02-03T08:36:19;93564.53;;;0.34;63.43
40592;BME280;26301;42.832;23.918;2023-02-03T08:38:45;93581.03;;;0.46;63.31
40592;BME280;26301;42.832;23.918;2023-02-03T08:41:12;93567.53;;;0.45;63.04
40592;BME280;26301;42.832;23.918;2023-02-03T08:43:38;93573.06;;;0.49;62.89
40592;BME280;26301;42.832;23.918;2023-02-03T08:46:05;93586.22;;;0.61;61.62
40592;BME280;26301;42.832;23.918;2023-02-03T08:48:34;93566.38;;;0.48;62.30
40592;BME280;26301;42.832;23.918;2023-02-03T08:51:01;93596.84;;;0.64;61.11
40592;BME280;26301;42.832;23.918;2023-02-03T08:53:26;93595.88;;;0.65;61.92
40592;BME280;26301;42.832;23.918;2023-02-03T08:56:03;93577.63;;;0.70;60.04
40592;BME280;26301;42.832;23.918;2023-02-03T08:58:29;93568.75;;;0.58;61.69
40592;BME280;26301;42.832;23.918;2023-02-03T09:01:03;93599.00;;;0.84;60.84
40592;BME280;26301;42.832;23.918;2023-02-03T09:03:29;93598.09;;;0.77;60.43
40592;BME280;26301;42.832;23.918;2023-02-03T09:06:00;93597.00;;;0.63;61.06
40592;BME280;26301;42.832;23.918;2023-02-03T09:08:27;93607.94;;;0.80;60.92
40592;BME280;26301;42.832;23.918;2023-02-03T09:10:52;93620.91;;;0.93;60.91
40592;BME280;26301;42.832;23.918;2023-02-03T09:13:18;93579.19;;;0.71;61.23
40592;BME280;26301;42.832;23.918;2023-02-03T09:15:44;93620.56;;;1.04;60.62
40592;BME280;26301;42.832;23.918;2023-02-03T09:18:11;93615.78;;;1.09;61.02
40592;BME280;26301;42.832;23.918;2023-02-03T09:20:36;93609.00;;;0.94;59.59
40592;BME280;26301;42.832;23.918;2023-02-03T09:23:02;93606.09;;;1.05;60.19
40592;BME280;26301;42.832;23.918;2023-02-03T09:25:27;93600.84;;;1.06;60.64
40592;BME280;26301;42.832;23.918;2023-02-03T09:27:53;93625.63;;;1.12;60.42
40592;BME280;26301;42.832;23.918;2023-02-03T09:30:19;93634.69;;;1.15;59.72
40592;BME280;26301;42.832;23.918;2023-02-03T09:32:44;93622.09;;;1.13;59.71
40592;BME280;26301;42.832;23.918;2023-02-03T09:35:13;93596.50;;;1.15;58.99
40592;BME280;26301;42.832;23.918;2023-02-03T09:37:39;93620.38;;;1.45;60.17
40592;BME280;26301;42.832;23.918;2023-02-03T09:40:09;93619.47;;;1.61;59.67
40592;BME280;26301;42.832;23.918;2023-02-03T09:45:26;93593.59;;;1.95;57.71
40592;BME280;26301;42.832;23.918;2023-02-03T09:47:55;93596.84;;;2.12;58.21
40592;BME280;26301;42.832;23.918;2023-02-03T09:50:26;93518.53;;;1.68;56.83
40592;BME280;26301;42.832;23.918;2023-02-03T09:52:52;93587.56;;;2.34;55.59
40592;BME280;26301;42.832;23.918;2023-02-03T09:58:05;93575.28;;;2.38;56.62
40592;BME280;26301;42.832;23.918;2023-02-03T10:00:46;93577.91;;;2.44;54.10
40592;BME280;26301;42.832;23.918;2023-02-03T10:06:36;93550.03;;;2.43;54.58
40592;BME280;26301;42.832;23.918;2023-02-03T10:12:36;93568.50;;;2.74;55.71
40592;BME280;26301;42.832;23.918;2023-02-03T10:18:11;93560.16;;;2.51;54.29
40592;BME280;26301;42.832;23.918;2023-02-03T10:20:42;93543.44;;;2.34;52.28
40592;BME280;26301;42.832;23.918;2023-02-03T10:23:37;93555.66;;;2.38;53.25
40592;BME280;26301;42.832;23.918;2023-02-03T10:26:07;93541.91;;;2.24;53.39
40592;BME280;26301;42.832;23.918;2023-02-03T10:28:40;93566.00;;;2.22;52.66
40592;BME280;26301;42.832;23.918;2023-02-03T10:31:16;93573.38;;;2.17;52.69
40592;BME280;26301;42.832;23.918;2023-02-03T10:33:42;93546.91;;;2.03;52.98
40592;BME280;26301;42.832;23.918;2023-02-03T10:36:22;93539.88;;;2.05;52.64
40592;BME280;26301;42.832;23.918;2023-02-03T10:41:36;93549.22;;;2.27;53.41
40592;BME280;26301;42.832;23.918;2023-02-03T10:44:07;93506.84;;;1.97;52.65
40592;BME280;26301;42.832;23.918;2023-02-03T10:46:37;93539.72;;;2.21;52.78
40592;BME280;26301;42.832;23.918;2023-02-03T10:49:03;93543.78;;;2.45;53.59
40592;BME280;26301;42.832;23.918;2023-02-03T10:51:36;93536.22;;;2.52;52.95
40592;BME280;26301;42.832;23.918;2023-02-03T10:54:03;93548.34;;;2.80;51.56
40592;BME280;26301;42.832;23.918;2023-02-03T10:56:34;93547.19;;;2.97;51.31
40592;BME280;26301;42.832;23.918;2023-02-03T10:59:01;93513.84;;;2.98;50.00
40592;BME280;26301;42.832;23.918;2023-02-03T11:01:40;93543.78;;;3.26;48.84
40592;BME280;26301;42.832;23.918;2023-02-03T11:04:08;93523.81;;;3.15;47.60
40592;BME280;26301;42.832;23.918;2023-02-03T11:07:08;93535.56;;;3.31;49.27
40592;BME280;26301;42.832;23.918;2023-02-03T11:09:47;93523.72;;;3.23;48.89
40592;BME280;26301;42.832;23.918;2023-02-03T11:12:15;93520.75;;;3.19;49.04
40592;BME280;26301;42.832;23.918;2023-02-03T11:14:42;93467.00;;;3.06;49.76
40592;BME280;26301;42.832;23.918;2023-02-03T11:17:16;93493.56;;;3.33;50.20
40592;BME280;26301;42.832;23.918;2023-02-03T11:19:46;93489.75;;;3.44;46.33
40592;BME280;26301;42.832;23.918;2023-02-03T11:22:35;93508.59;;;3.64;47.14
40592;BME280;26301;42.832;23.918;2023-02-03T11:25:15;93492.19;;;3.74;46.69
40592;BME280;26301;42.832;23.918;2023-02-03T11:27:42;93495.09;;;3.71;47.86
40592;BME280;26301;42.832;23.918;2023-02-03T11:32:41;93494.44;;;3.62;45.76
40592;BME280;26301;42.832;23.918;2023-02-03T11:35:17;93491.75;;;3.70;44.52
40592;BME280;26301;42.832;23.918;2023-02-03T11:37:47;93474.03;;;3.69;45.45
40592;BME280;26301;42.832;23.918;2023-02-03T11:47:51;93490.06;;;3.56;45.87
40592;BME280;26301;42.832;23.918;2023-02-03T11:50:33;93501.00;;;3.28;46.75
40592;BME280;26301;42.832;23.918;2023-02-03T11:53:23;93489.44;;;3.32;46.27
40592;BME280;26301;42.832;23.918;2023-02-03T12:24:39;93471.75;;;3.52;44.34
40592;BME280;26301;42.832;23.918;2023-02-03T12:27:21;93470.84;;;3.60;45.78
40592;BME280;26301;42.832;23.918;2023-02-03T12:30:03;93458.47;;;3.63;43.86
40592;BME280;26301;42.832;23.918;2023-02-03T12:35:46;93468.34;;;3.45;42.99
40592;BME280;26301;42.832;23.918;2023-02-03T12:38:33;93436.88;;;3.16;43.30
40592;BME280;26301;42.832;23.918;2023-02-03T12:41:10;93458.19;;;3.30;45.08
40592;BME280;26301;42.832;23.918;2023-02-03T12:43:45;93439.66;;;3.21;44.43
40592;BME280;26301;42.832;23.918;2023-02-03T12:54:02;93448.34;;;3.06;47.01
40592;BME280;26301;42.832;23.918;2023-02-03T12:56:37;93456.31;;;2.96;47.57
40592;BME280;26301;42.832;23.918;2023-02-03T12:59:23;93420.63;;;2.81;47.96
40592;BME280;26301;42.832;23.918;2023-02-03T13:01:58;93441.03;;;2.81;47.87
40592;BME280;26301;42.832;23.918;2023-02-03T13:04:46;93450.09;;;2.84;47.90
40592;BME280;26301;42.832;23.918;2023-02-03T13:07:43;93448.06;;;2.79;47.84
40592;BME280;26301;42.832;23.918;2023-02-03T13:10:22;93442.00;;;2.80;49.18
40592;BME280;26301;42.832;23.918;2023-02-03T13:12:58;93417.75;;;2.69;49.20
40592;BME280;26301;42.832;23.918;2023-02-03T13:15:37;93430.03;;;2.81;49.23
40592;BME280;26301;42.832;23.918;2023-02-03T13:18:25;93403.53;;;2.60;49.65
40592;BME280;26301;42.832;23.918;2023-02-03T13:20:54;93415.47;;;2.74;49.56
40592;BME280;26301;42.832;23.918;2023-02-03T13:23:20;93433.28;;;2.89;48.96
40592;BME280;26301;42.832;23.918;2023-02-03T13:37:08;93421.09;;;2.91;48.89
40592;BME280;26301;42.832;23.918;2023-02-03T13:42:33;93420.88;;;2.86;49.53
40592;BME280;26301;42.832;23.918;2023-02-03T13:47:54;93411.56;;;2.79;49.71
40592;BME280;26301;42.832;23.918;2023-02-03T13:52:54;93427.19;;;2.90;49.38
40592;BME280;26301;42.832;23.918;2023-02-03T13:55:42;93408.75;;;2.73;50.63
40592;BME280;26301;42.832;23.918;2023-02-03T13:58:38;93425.34;;;2.84;51.08
40592;BME280;26301;42.832;23.918;2023-02-03T14:01:30;93429.69;;;2.84;51.34
40592;BME280;26301;42.832;23.918;2023-02-03T14:03:58;93432.53;;;2.74;50.45
40592;BME280;26301;42.832;23.918;2023-02-03T14:11:49;93422.19;;;2.46;49.70
40592;BME280;26301;42.832;23.918;2023-02-03T14:16:51;93423.31;;;2.43;49.61
40592;BME280;26301;42.832;23.918;2023-02-03T14:24:39;93407.28;;;2.13;49.86
40592;BME280;26301;42.832;23.918;2023-02-03T14:27:19;93441.03;;;2.30;51.17
40592;BME280;26301;42.832;23.918;2023-02-03T14:30:11;93422.41;;;2.15;49.90
40592;BME280;26301;42.832;23.918;2023-02-03T14:32:57;93430.13;;;2.06;50.73
40592;BME280;26301;42.832;23.918;2023-02-03T14:35:38;93438.75;;;2.05;50.26
40592;BME280;26301;42.832;23.918;2023-02-03T14:38:12;93380.16;;;1.76;50.77
40592;BME280;26301;42.832;23.918;2023-02-03T14:40:58;93448.59;;;2.23;49.90
40592;BME280;26301;42.832;23.918;2023-02-03T14:43:40;93426.78;;;2.06;49.90
40592;BME280;26301;42.832;23.918;2023-02-03T14:46:20;93454.91;;;2.27;48.77
40592;BME280;26301;42.832;23.918;2023-02-03T15:02:16;93448.94;;;1.53;49.54
40592;BME280;26301;42.832;23.918;2023-02-03T15:04:44;93449.03;;;1.45;49.84
40592;BME280;26301;42.832;23.918;2023-02-03T15:07:33;93455.34;;;1.49;50.02
40592;BME280;26301;42.832;23.918;2023-02-03T15:09:59;93449.81;;;1.45;50.21
40592;BME280;26301;42.832;23.918;2023-02-03T15:12:26;93411.94;;;1.27;51.41
40592;BME280;26301;42.832;23.918;2023-02-03T15:14:52;93441.66;;;1.50;52.59
40592;BME280;26301;42.832;23.918;2023-02-03T15:19:44;93415.78;;;1.23;49.83
40592;BME280;26301;42.832;23.918;2023-02-03T15:22:27;93415.19;;;1.21;50.58
40592;BME280;26301;42.832;23.918;2023-02-03T15:25:00;93427.13;;;1.21;51.38
40592;BME280;26301;42.832;23.918;2023-02-03T15:27:31;93436.59;;;1.27;52.83
40592;BME280;26301;42.832;23.918;2023-02-03T15:29:57;93438.88;;;1.22;54.14
40592;BME280;26301;42.832;23.918;2023-02-03T15:32:36;93430.34;;;1.14;53.87
40592;BME280;26301;42.832;23.918;2023-02-03T15:35:15;93430.94;;;1.17;55.59
40592;BME280;26301;42.832;23.918;2023-02-03T15:37:50;93419.53;;;1.12;55.82
40592;BME280;26301;42.832;23.918;2023-02-03T15:40:20;93401.81;;;0.96;56.11
40592;BME280;26301;42.832;23.918;2023-02-03T15:43:14;93414.34;;;1.06;56.61
40592;BME280;26301;42.832;23.918;2023-02-03T15:48:56;93391.16;;;0.78;57.82
40592;BME280;26301;42.832;23.918;2023-02-03T15:51:31;93345.88;;;0.50;57.92
40592;BME280;26301;42.832;23.918;2023-02-03T15:53:58;93405.47;;;0.79;58.12